createdAt,value
2022-11-25T00:01:30.262Z,101157.66
2022-11-25T00:03:59.983Z,101153.34
2022-11-25T00:06:31.333Z,101170.53
2022-11-25T00:09:01.313Z,101176.13
2022-11-25T00:11:29.573Z,101176.41
2022-11-25T00:13:58.867Z,101187.19
2022-11-25T00:16:27.703Z,101183.97
2022-11-25T00:18:59.231Z,101179.38
2022-11-25T00:21:32.754Z,101176.97
2022-11-25T00:24:02.800Z,101173.59
2022-11-25T00:26:32.875Z,101171.16
2022-11-25T00:29:02.877Z,101178.19
2022-11-25T00:31:33.220Z,101169.94
2022-11-25T00:34:01.768Z,101181.34
2022-11-25T00:36:33.265Z,101167.28
2022-11-25T00:39:03.028Z,101135.81
2022-11-25T00:41:48.766Z,101158.16
2022-11-25T00:44:38.005Z,101160.63
2022-11-25T00:47:09.902Z,101176.03
2022-11-25T00:49:38.914Z,101196.03
2022-11-25T00:52:10.130Z,101190.22
2022-11-25T00:54:38.587Z,101186.28
2022-11-25T00:57:07.001Z,101178.75
2022-11-25T00:59:36.317Z,101173.69
2022-11-25T01:02:04.654Z,101183.38
2022-11-25T01:04:33.007Z,101182.75
2022-11-25T01:07:02.338Z,101183.41
2022-11-25T01:09:32.613Z,101190.44
2022-11-25T01:12:00.993Z,101198.34
2022-11-25T01:14:32.034Z,101200.78
2022-11-25T01:17:00.418Z,101196.41
2022-11-25T01:19:28.811Z,101195.22
2022-11-25T01:21:57.136Z,101197.16
2022-11-25T01:24:26.451Z,101165.44
2022-11-25T01:26:56.941Z,101206.00
2022-11-25T01:29:25.292Z,101203.69
2022-11-25T01:31:56.608Z,101206.25
2022-11-25T01:34:27.817Z,101180.69
2022-11-25T01:36:58.605Z,101215.69
2022-11-25T01:39:32.525Z,101211.59
2022-11-25T01:42:04.378Z,101212.56
2022-11-25T01:44:36.454Z,101174.53
2022-11-25T01:47:17.034Z,101222.84
2022-11-25T01:49:50.722Z,101215.94
2022-11-25T01:52:24.053Z,101226.84
2022-11-25T01:54:55.723Z,101232.81
2022-11-25T01:57:29.210Z,101233.66
2022-11-25T02:00:01.910Z,101233.66
2022-11-25T02:02:32.948Z,101230.25
2022-11-25T02:05:02.906Z,101241.16
2022-11-25T02:07:35.479Z,101219.56
2022-11-25T02:10:06.844Z,101234.75
2022-11-25T02:12:38.086Z,101245.28
2022-11-25T02:15:07.950Z,101242.34
2022-11-25T02:17:39.735Z,101246.72
2022-11-25T02:20:11.733Z,101237.88
2022-11-25T02:22:51.556Z,101241.50
2022-11-25T02:25:25.230Z,101246.00
2022-11-25T02:27:58.844Z,101207.94
2022-11-25T02:30:27.353Z,101242.00
2022-11-25T02:32:56.072Z,101244.78
2022-11-25T02:35:27.825Z,101242.00
2022-11-25T02:38:00.898Z,101247.22
2022-11-25T02:40:31.285Z,101249.88
2022-11-25T02:43:01.297Z,101256.16
2022-11-25T02:45:43.687Z,101255.22
2022-11-25T02:48:12.044Z,101254.97
2022-11-25T02:50:40.271Z,101246.13
2022-11-25T02:53:08.871Z,101250.22
2022-11-25T02:55:39.258Z,101253.50
2022-11-25T02:58:08.121Z,101241.88
2022-11-25T03:00:36.784Z,101250.94
2022-11-25T03:03:05.704Z,101253.50
2022-11-25T03:05:34.516Z,101253.25
2022-11-25T03:08:02.991Z,101256.66
2022-11-25T03:10:31.581Z,101250.59
2022-11-25T03:13:02.743Z,101255.91
2022-11-25T03:15:31.049Z,101254.22
2022-11-25T03:17:59.383Z,101248.66
2022-11-25T03:20:29.022Z,101247.69
2022-11-25T03:22:57.409Z,101256.78
2022-11-25T03:25:26.339Z,101258.81
2022-11-25T03:27:55.335Z,101261.16
2022-11-25T03:30:27.122Z,101262.00
2022-11-25T03:32:59.132Z,101259.44
2022-11-25T03:35:28.632Z,101260.31
2022-11-25T03:37:57.117Z,101265.63
2022-11-25T03:40:25.465Z,101254.59
2022-11-25T03:42:53.846Z,101252.63
2022-11-25T03:45:22.415Z,101247.53
2022-11-25T03:47:52.837Z,101251.28
2022-11-25T03:50:21.840Z,101249.97
2022-11-25T03:52:50.133Z,101239.28
2022-11-25T03:55:21.886Z,101237.19
2022-11-25T03:57:51.655Z,101233.31
2022-11-25T04:00:20.648Z,101238.63
2022-11-25T04:02:58.078Z,101235.38
2022-11-25T04:05:27.340Z,101231.13
2022-11-25T04:07:59.282Z,101242.75
2022-11-25T04:10:28.354Z,101241.28
2022-11-25T04:12:55.921Z,101238.00
2022-11-25T04:15:30.215Z,101216.19
2022-11-25T04:18:01.440Z,101225.50
2022-11-25T04:20:29.949Z,101224.50
2022-11-25T04:23:03.767Z,101236.13
2022-11-25T04:25:34.588Z,101230.50
2022-11-25T04:28:08.135Z,101181.13
2022-11-25T04:30:36.680Z,101230.28
2022-11-25T04:33:06.911Z,101230.72
2022-11-25T04:35:36.171Z,101236.28
2022-11-25T04:38:06.038Z,101227.81
2022-11-25T04:40:36.805Z,101237.19
2022-11-25T04:43:16.554Z,101183.16
2022-11-25T04:46:12.950Z,101243.38
2022-11-25T04:48:42.130Z,101247.22
2022-11-25T04:51:10.908Z,101249.13
2022-11-25T04:53:39.175Z,101247.78
2022-11-25T04:56:09.433Z,101244.19
2022-11-25T04:59:01.699Z,101204.50
2022-11-25T05:01:35.050Z,101237.72
2022-11-25T05:04:21.940Z,101234.63
2022-11-25T05:06:51.876Z,101234.00
2022-11-25T05:09:21.473Z,101228.31
2022-11-25T05:11:59.078Z,101226.50
2022-11-25T05:14:27.409Z,101222.34
2022-11-25T05:16:55.839Z,101226.19
2022-11-25T05:19:26.453Z,101234.38
2022-11-25T05:21:54.879Z,101238.22
2022-11-25T05:24:23.326Z,101242.03
2022-11-25T05:26:53.315Z,101241.00
2022-11-25T05:29:21.854Z,101249.19
2022-11-25T05:31:50.225Z,101245.25
2022-11-25T05:34:19.056Z,101251.91
2022-11-25T05:36:48.774Z,101260.09
2022-11-25T05:39:17.153Z,101253.94
2022-11-25T05:42:14.484Z,101256.41
2022-11-25T05:44:42.866Z,101267.34
2022-11-25T05:47:11.184Z,101265.22
2022-11-25T05:49:40.759Z,101271.09
2022-11-25T05:52:10.403Z,101278.41
2022-11-25T05:54:47.763Z,101273.53
2022-11-25T05:57:16.064Z,101276.31
2022-11-25T05:59:48.837Z,101245.56
2022-11-25T06:02:23.501Z,101284.56
2022-11-25T06:04:52.865Z,101280.13
2022-11-25T06:07:22.658Z,101285.53
2022-11-25T06:09:51.722Z,101287.34
2022-11-25T06:12:22.580Z,101265.75
2022-11-25T06:14:52.531Z,101290.63
2022-11-25T06:17:20.842Z,101292.44
2022-11-25T06:19:55.523Z,101292.53
2022-11-25T06:22:25.416Z,101291.56
2022-11-25T06:25:01.833Z,101286.88
2022-11-25T06:27:50.422Z,101297.69
2022-11-25T06:30:21.669Z,101298.13
2022-11-25T06:33:03.035Z,101300.97
2022-11-25T06:35:31.363Z,101306.50
2022-11-25T06:38:05.076Z,101310.84
2022-11-25T06:40:33.710Z,101302.53
2022-11-25T06:43:01.979Z,101313.81
2022-11-25T06:45:30.513Z,101315.81
2022-11-25T06:47:58.723Z,101323.97
2022-11-25T06:50:27.018Z,101310.16
2022-11-25T06:52:55.294Z,101307.50
2022-11-25T06:55:25.100Z,101304.53
2022-11-25T06:57:59.085Z,101295.84
2022-11-25T07:00:36.647Z,101285.09
2022-11-25T07:03:05.049Z,101298.91
2022-11-25T07:05:33.425Z,101301.25
2022-11-25T07:08:01.768Z,101315.69
2022-11-25T07:10:31.499Z,101309.28
2022-11-25T07:12:59.755Z,101301.50
2022-11-25T07:15:28.096Z,101314.13
2022-11-25T07:17:56.400Z,101321.78
2022-11-25T07:20:28.008Z,101322.63
2022-11-25T07:22:56.380Z,101320.09
2022-11-25T07:25:30.446Z,101318.88
2022-11-25T07:28:00.760Z,101321.63
2022-11-25T07:31:21.743Z,101311.00
2022-11-25T07:33:17.314Z,101307.41
2022-11-25T07:35:45.813Z,101325.59
2022-11-25T07:38:14.194Z,101321.63
2022-11-25T07:40:42.474Z,101316.78
2022-11-25T07:43:12.242Z,101315.88
2022-11-25T07:45:40.416Z,101321.66
2022-11-25T07:48:11.630Z,101314.84
2022-11-25T07:50:39.930Z,101327.47
2022-11-25T07:53:08.188Z,101325.97
2022-11-25T07:55:37.790Z,101335.41
2022-11-25T07:58:06.024Z,101330.34
2022-11-25T08:00:35.884Z,101338.50
2022-11-25T08:03:04.178Z,101330.31
2022-11-25T08:05:34.568Z,101327.84
2022-11-25T08:08:03.115Z,101314.88
2022-11-25T08:10:31.440Z,101341.69
2022-11-25T08:12:59.722Z,101337.50
2022-11-25T08:15:28.305Z,101336.63
2022-11-25T08:17:58.948Z,101340.16
2022-11-25T08:20:27.203Z,101339.91
2022-11-25T08:22:55.893Z,101337.41
2022-11-25T08:25:24.197Z,101340.53
2022-11-25T08:27:52.459Z,101345.19
2022-11-25T08:30:24.646Z,101347.09
2022-11-25T08:32:53.235Z,101360.28
2022-11-25T08:35:22.914Z,101360.97
2022-11-25T08:37:52.503Z,101360.44
2022-11-25T08:40:20.821Z,101347.84
2022-11-25T08:42:49.161Z,101352.03
2022-11-25T08:45:17.583Z,101346.09
2022-11-25T08:47:46.001Z,101342.19
2022-11-25T08:50:15.948Z,101344.44
2022-11-25T08:52:45.699Z,101355.44
2022-11-25T08:55:14.477Z,101356.16
2022-11-25T08:57:42.774Z,101351.72
2022-11-25T09:00:12.598Z,101354.34
2022-11-25T09:02:40.871Z,101351.84
2022-11-25T09:05:09.730Z,101362.50
2022-11-25T09:07:38.130Z,101370.00
2022-11-25T09:10:10.841Z,101376.09
2022-11-25T09:12:39.127Z,101381.56
2022-11-25T09:15:08.484Z,101380.13
2022-11-25T09:17:37.559Z,101384.78
2022-11-25T09:20:06.928Z,101379.84
2022-11-25T09:22:35.153Z,101378.88
2022-11-25T09:25:03.475Z,101387.03
2022-11-25T09:27:33.957Z,101384.59
2022-11-25T09:30:02.306Z,101392.03
2022-11-25T09:32:30.646Z,101383.88
2022-11-25T09:34:58.850Z,101379.97
2022-11-25T09:37:27.288Z,101379.28
2022-11-25T09:40:03.610Z,101383.00
2022-11-25T09:43:04.044Z,101385.59
2022-11-25T09:46:02.064Z,101382.53
2022-11-25T09:48:58.048Z,101384.38
2022-11-25T09:51:35.420Z,101357.00
2022-11-25T09:54:12.142Z,101387.81
2022-11-25T09:56:43.860Z,101375.31
2022-11-25T09:59:19.574Z,101373.38
2022-11-25T10:01:52.120Z,101371.66
2022-11-25T10:04:26.993Z,101368.75
2022-11-25T10:07:01.199Z,101358.16
2022-11-25T10:09:31.762Z,101366.94
2022-11-25T10:12:06.659Z,101359.75
2022-11-25T10:14:43.993Z,101358.47
2022-11-25T10:17:19.064Z,101333.91
2022-11-25T10:19:56.623Z,101358.88
2022-11-25T10:22:27.052Z,101340.38
2022-11-25T10:24:58.759Z,101350.75
2022-11-25T10:27:34.295Z,101313.50
2022-11-25T10:30:14.593Z,101327.94
2022-11-25T10:32:46.903Z,101325.22
2022-11-25T10:35:24.854Z,101322.63
2022-11-25T10:37:55.589Z,101327.41
2022-11-25T10:40:24.120Z,101327.38
2022-11-25T10:42:52.544Z,101314.38
2022-11-25T10:45:29.332Z,101316.84
2022-11-25T10:48:11.479Z,101323.84
2022-11-25T10:50:52.042Z,101321.25
2022-11-25T10:53:24.132Z,101232.03
2022-11-25T10:56:01.956Z,101314.25
2022-11-25T10:58:33.464Z,101303.66
2022-11-25T11:01:17.036Z,101307.88
2022-11-25T11:03:52.235Z,101302.34
2022-11-25T11:06:32.186Z,101293.53
2022-11-25T11:09:00.885Z,101289.53
2022-11-25T11:11:29.516Z,101283.25
2022-11-25T11:14:14.106Z,101282.97
2022-11-25T11:16:46.258Z,101274.16
2022-11-25T11:19:32.367Z,101282.78
2022-11-25T11:22:18.024Z,101278.78
2022-11-25T11:24:47.401Z,101283.06
2022-11-25T11:27:21.883Z,101285.50
2022-11-25T11:30:08.987Z,101290.13
2022-11-25T11:32:43.256Z,101281.94
2022-11-25T11:35:21.788Z,101285.84
2022-11-25T11:37:55.447Z,101282.00
2022-11-25T11:40:32.183Z,101276.94
2022-11-25T11:43:18.047Z,101271.25
2022-11-25T11:45:59.526Z,101281.00
2022-11-25T11:48:39.697Z,101187.00
2022-11-25T11:51:21.061Z,101266.84
2022-11-25T11:54:01.847Z,101272.41
2022-11-25T11:56:38.114Z,101270.56
2022-11-25T11:59:25.354Z,101268.03
2022-11-25T12:02:07.047Z,101262.47
2022-11-25T12:04:42.704Z,101275.41
2022-11-25T12:07:19.274Z,101226.16
2022-11-25T12:09:53.815Z,101231.22
2022-11-25T12:12:26.465Z,101274.56
2022-11-25T12:15:04.050Z,101250.97
2022-11-25T12:17:45.296Z,101277.25
2022-11-25T12:20:21.888Z,101262.94
2022-11-25T12:22:57.246Z,101260.09
2022-11-25T12:25:28.367Z,101275.09
2022-11-25T12:28:02.849Z,101274.25
2022-11-25T12:30:38.450Z,101277.09
2022-11-25T12:33:13.627Z,101293.41
2022-11-25T12:35:50.755Z,101297.09
2022-11-25T12:38:38.216Z,101311.59
2022-11-25T12:41:16.232Z,101311.53
2022-11-25T12:43:48.935Z,101283.31
2022-11-25T12:46:26.138Z,101319.41
2022-11-25T12:48:56.239Z,101286.22
2022-11-25T12:51:42.338Z,101327.41
2022-11-25T12:54:25.911Z,101344.50
2022-11-25T12:57:21.348Z,101355.88
2022-11-25T13:00:39.193Z,101359.25
2022-11-25T13:03:34.404Z,101362.81
2022-11-25T13:06:25.543Z,101371.03
2022-11-25T13:09:03.081Z,101375.63
2022-11-25T13:12:11.567Z,101372.91
2022-11-25T13:15:03.298Z,101384.13
2022-11-25T13:17:36.814Z,101384.97
2022-11-25T13:20:40.588Z,101391.50
2022-11-25T13:23:24.280Z,101392.81
2022-11-25T13:26:03.135Z,101388.88
2022-11-25T13:28:33.827Z,101389.56
2022-11-25T13:31:23.501Z,101403.16
2022-11-25T13:34:07.918Z,101408.97
2022-11-25T13:36:48.117Z,101325.94
2022-11-25T13:39:18.214Z,101406.34
2022-11-25T13:42:01.127Z,101409.19
2022-11-25T13:44:32.667Z,101390.88
2022-11-25T13:47:22.754Z,101408.94
2022-11-25T13:49:54.411Z,101416.16
2022-11-25T13:52:39.171Z,101410.69
2022-11-25T13:55:25.643Z,101408.97
2022-11-25T13:58:20.739Z,101389.09
2022-11-25T14:01:00.710Z,101272.09
2022-11-25T14:03:48.749Z,101394.13
2022-11-25T14:06:43.258Z,101428.53
2022-11-25T14:09:25.061Z,101429.81
2022-11-25T14:12:26.351Z,101433.16
2022-11-25T14:15:06.822Z,101437.09
2022-11-25T14:18:07.508Z,101443.53
2022-11-25T14:20:45.527Z,101449.84
2022-11-25T14:23:43.105Z,101458.41
2022-11-25T14:26:34.101Z,101455.41
2022-11-25T14:29:07.622Z,101445.63
2022-11-25T14:31:42.809Z,101456.91
2022-11-25T14:34:17.025Z,101451.81
2022-11-25T14:36:49.260Z,101455.78
2022-11-25T14:39:24.589Z,101457.88
2022-11-25T14:42:01.158Z,101443.84
2022-11-25T14:44:33.650Z,101480.44
2022-11-25T14:47:06.418Z,101475.19
2022-11-25T14:49:52.059Z,101478.56
2022-11-25T14:52:36.193Z,101457.31
2022-11-25T14:55:07.123Z,101490.50
2022-11-25T14:57:37.500Z,101491.34
2022-11-25T15:00:12.271Z,101470.69
2022-11-25T15:02:52.643Z,101500.97
2022-11-25T15:05:24.090Z,101506.06
2022-11-25T15:08:00.466Z,101519.44
2022-11-25T15:10:42.342Z,101516.94
2022-11-25T15:13:21.634Z,101516.09
2022-11-25T15:15:51.815Z,101525.41
2022-11-25T15:18:25.163Z,101434.19
2022-11-25T15:20:59.893Z,101518.88
2022-11-25T15:23:34.800Z,101531.84
2022-11-25T15:26:06.885Z,101532.94
2022-11-25T15:28:37.617Z,101537.00
2022-11-25T15:31:12.773Z,101531.19
2022-11-25T15:33:43.916Z,101536.91
2022-11-25T15:36:13.091Z,101526.28
2022-11-25T15:38:43.795Z,101537.44
2022-11-25T15:41:34.541Z,101538.69
2022-11-25T15:44:06.240Z,101551.47
2022-11-25T15:46:37.080Z,101545.13
2022-11-25T15:49:09.151Z,101545.72
2022-11-25T15:51:42.948Z,101546.00
2022-11-25T15:54:20.324Z,101521.84
2022-11-25T15:56:50.723Z,101550.66
2022-11-25T15:59:41.642Z,101553.09
2022-11-25T16:02:36.889Z,101528.97
2022-11-25T16:05:31.876Z,101550.09
2022-11-25T16:08:26.617Z,101548.31
2022-11-25T16:10:57.367Z,101549.31
2022-11-25T16:13:36.641Z,101524.16
2022-11-25T16:16:19.807Z,101556.72
2022-11-25T16:19:07.369Z,101562.19
2022-11-25T16:21:52.260Z,101562.56
2022-11-25T16:24:39.580Z,101570.94
2022-11-25T16:27:17.748Z,101566.44
2022-11-25T16:29:52.211Z,101560.97
2022-11-25T16:32:22.391Z,101542.28
2022-11-25T16:34:51.173Z,101580.03
2022-11-25T16:37:20.823Z,101577.50
2022-11-25T16:39:49.192Z,101573.72
2022-11-25T16:42:20.749Z,101581.75
2022-11-25T16:44:50.692Z,101587.56
2022-11-25T16:47:19.954Z,101588.88
2022-11-25T16:49:48.494Z,101583.41
2022-11-25T16:52:16.886Z,101581.69
2022-11-25T16:54:47.552Z,101591.94
2022-11-25T16:57:20.279Z,101586.13
2022-11-25T16:59:55.915Z,101583.22
2022-11-25T17:02:27.270Z,101589.03
2022-11-25T17:04:57.238Z,101584.78
2022-11-25T17:07:33.890Z,101587.69
2022-11-25T17:10:04.059Z,101580.81
2022-11-25T17:12:34.298Z,101588.31
2022-11-25T17:15:04.768Z,101586.88
2022-11-25T17:17:33.727Z,101591.34
2022-11-25T17:20:02.050Z,101588.47
2022-11-25T17:22:34.665Z,101580.81
2022-11-25T17:25:08.231Z,101581.03
2022-11-25T17:27:36.730Z,101576.66
2022-11-25T17:30:08.279Z,101573.38
2022-11-25T17:32:37.337Z,101581.53
2022-11-25T17:35:17.422Z,101582.09
2022-11-25T17:37:45.761Z,101579.31
2022-11-25T17:40:17.377Z,101582.84
2022-11-25T17:42:48.413Z,101585.75
2022-11-25T17:45:18.793Z,101588.91
2022-11-25T17:47:47.914Z,101583.44
2022-11-25T17:50:20.350Z,101579.28
2022-11-25T17:52:48.695Z,101591.91
2022-11-25T17:55:19.903Z,101591.16
2022-11-25T17:57:48.680Z,101599.41
2022-11-25T18:00:19.303Z,101602.06
2022-11-25T18:02:49.685Z,101566.13
2022-11-25T18:05:20.421Z,101606.34
2022-11-25T18:07:48.898Z,101606.81
2022-11-25T18:10:20.236Z,101616.03
2022-11-25T18:12:51.205Z,101584.13
2022-11-25T18:15:22.999Z,101629.72
2022-11-25T18:17:53.702Z,101625.22
2022-11-25T18:20:25.572Z,101621.38
2022-11-25T18:22:54.279Z,101619.06
2022-11-25T18:25:25.876Z,101619.69
2022-11-25T18:27:56.635Z,101622.13
2022-11-25T18:30:27.792Z,101615.69
2022-11-25T18:32:57.454Z,101626.38
2022-11-25T18:35:34.155Z,101630.00
2022-11-25T18:38:06.288Z,101640.91
2022-11-25T18:40:40.233Z,101639.22
2022-11-25T18:43:15.015Z,101643.59
2022-11-25T18:45:44.774Z,101644.66
2022-11-25T18:48:15.943Z,101643.81
2022-11-25T18:50:45.079Z,101638.84
2022-11-25T18:53:13.461Z,101657.16
2022-11-25T18:55:43.659Z,101657.78
2022-11-25T18:58:17.126Z,101655.72
2022-11-25T19:00:48.500Z,101659.25
2022-11-25T19:03:20.679Z,101670.44
2022-11-25T19:05:50.136Z,101673.38
2022-11-25T19:08:18.800Z,101681.53
2022-11-25T19:10:49.748Z,101683.50
2022-11-25T19:13:21.234Z,101684.97
2022-11-25T19:15:49.840Z,101693.84
2022-11-25T19:18:24.767Z,101696.41
2022-11-25T19:20:53.225Z,101699.28
2022-11-25T19:23:25.533Z,101707.31
2022-11-25T19:25:57.141Z,101709.97
2022-11-25T19:28:26.150Z,101724.53
2022-11-25T19:31:00.045Z,101737.53
2022-11-25T19:33:32.072Z,101738.84
2022-11-25T19:36:00.426Z,101738.13
2022-11-25T19:38:29.866Z,101750.50
2022-11-25T19:40:59.978Z,101755.72
2022-11-25T19:43:28.433Z,101754.13
2022-11-25T19:45:57.380Z,101753.50
2022-11-25T19:48:28.471Z,101755.56
2022-11-25T19:50:59.823Z,101761.63
2022-11-25T19:53:33.448Z,101772.63
2022-11-25T19:56:04.845Z,101776.09
2022-11-25T19:58:33.674Z,101781.88
2022-11-25T20:01:04.674Z,101784.03
2022-11-25T20:03:33.311Z,101787.25
2022-11-25T20:06:02.535Z,101793.69
2022-11-25T20:08:31.897Z,101798.69
2022-11-25T20:11:00.113Z,101805.66
2022-11-25T20:13:29.825Z,101805.75
2022-11-25T20:16:00.214Z,101812.91
2022-11-25T20:18:29.268Z,101819.97
2022-11-25T20:21:02.812Z,101814.16
2022-11-25T20:23:41.687Z,101815.88
2022-11-25T20:26:16.510Z,101825.47
2022-11-25T20:28:46.811Z,101837.00
2022-11-25T20:31:16.207Z,101834.44
2022-11-25T20:33:44.577Z,101829.84
2022-11-25T20:36:16.867Z,101837.66
2022-11-25T20:38:48.629Z,101820.16
2022-11-25T20:41:19.776Z,101864.22
2022-11-25T20:43:52.780Z,101866.03
2022-11-25T20:46:24.518Z,101869.69
2022-11-25T20:48:55.298Z,101826.38
2022-11-25T20:51:25.344Z,101881.31
2022-11-25T20:53:56.367Z,101885.00
2022-11-25T20:56:26.739Z,101886.31
2022-11-25T20:58:56.880Z,101893.47
2022-11-25T21:01:25.745Z,101896.00
2022-11-25T21:03:54.127Z,101900.72
2022-11-25T21:06:24.951Z,101906.19
2022-11-25T21:08:55.049Z,101905.00
2022-11-25T21:11:24.440Z,101905.19
2022-11-25T21:13:53.090Z,101899.53
2022-11-25T21:16:23.192Z,101905.84
2022-11-25T21:18:52.594Z,101860.50
2022-11-25T21:21:30.301Z,101900.09
2022-11-25T21:23:59.208Z,101911.28
2022-11-25T21:26:28.049Z,101916.81
2022-11-25T21:28:56.547Z,101928.94
2022-11-25T21:31:27.346Z,101931.31
2022-11-25T21:33:59.843Z,101938.34
2022-11-25T21:36:30.491Z,101931.00
2022-11-25T21:39:06.217Z,101916.78
2022-11-25T21:41:34.889Z,101905.34
2022-11-25T21:44:07.265Z,101882.06
2022-11-25T21:46:37.142Z,101927.25
2022-11-25T21:49:12.193Z,101940.47
2022-11-25T21:51:40.488Z,101824.41
2022-11-25T21:54:08.665Z,101939.91
2022-11-25T21:56:37.013Z,101943.31
2022-11-25T21:59:07.802Z,101952.06
2022-11-25T22:01:37.544Z,101946.84
2022-11-25T22:04:06.763Z,101951.41
2022-11-25T22:06:35.097Z,101945.53
2022-11-25T22:09:03.448Z,101937.94
2022-11-25T22:11:34.037Z,101909.13
2022-11-25T22:14:06.240Z,101967.81
2022-11-25T22:16:37.702Z,101962.78
2022-11-25T22:19:06.048Z,101968.53
2022-11-25T22:21:34.312Z,101953.59
2022-11-25T22:24:06.907Z,101971.63
2022-11-25T22:26:35.713Z,101979.53
2022-11-25T22:29:04.848Z,101982.38
2022-11-25T22:31:33.235Z,101987.94
2022-11-25T22:34:03.131Z,101989.00
2022-11-25T22:36:33.989Z,102005.00
2022-11-25T22:39:13.802Z,101999.19
2022-11-25T22:41:42.822Z,101995.97
2022-11-25T22:44:18.767Z,102001.19
2022-11-25T22:46:47.748Z,101998.53
2022-11-25T22:49:28.329Z,101998.91
2022-11-25T22:51:56.922Z,101992.94
2022-11-25T22:54:25.470Z,102003.88
2022-11-25T22:56:53.849Z,102009.66
2022-11-25T22:59:23.096Z,102007.53
2022-11-25T23:01:51.498Z,102019.91
2022-11-25T23:04:20.977Z,102011.91
2022-11-25T23:06:51.415Z,102021.81
2022-11-25T23:09:20.905Z,102025.34
2022-11-25T23:11:49.776Z,102024.28
2022-11-25T23:14:18.100Z,102035.69
2022-11-25T23:16:46.489Z,102033.00
2022-11-25T23:19:16.872Z,102032.16
2022-11-25T23:21:46.652Z,102032.28
2022-11-25T23:24:18.014Z,102024.63
2022-11-25T23:26:46.480Z,102056.13
2022-11-25T23:29:14.809Z,102057.56
2022-11-25T23:31:43.246Z,102056.47
2022-11-25T23:34:14.079Z,102051.53
2022-11-25T23:36:45.837Z,102040.97
2022-11-25T23:39:21.907Z,102037.72
2022-11-25T23:41:50.561Z,102045.91
2022-11-25T23:44:24.123Z,102043.44
2022-11-25T23:46:55.559Z,102039.34
2022-11-25T23:49:29.196Z,102032.53
2022-11-25T23:52:04.603Z,102031.50
2022-11-25T23:54:41.203Z,102024.03
2022-11-25T23:57:15.667Z,102021.19
2022-11-25T23:59:44.511Z,102020.91
